createdAt,value
2023-01-20T00:01:48.921Z,99.90
2023-01-20T00:04:20.315Z,99.80
2023-01-20T00:06:49.160Z,99.70
2023-01-20T00:09:19.493Z,99.60
2023-01-20T00:11:48.798Z,99.50
2023-01-20T00:14:18.109Z,99.50
2023-01-20T00:16:46.835Z,99.50
2023-01-20T00:19:15.998Z,99.90
2023-01-20T00:21:44.879Z,99.50
2023-01-20T00:24:13.623Z,99.80
2023-01-20T00:26:42.395Z,99.90
2023-01-20T00:29:11.677Z,99.70
2023-01-20T00:31:40.703Z,99.70
2023-01-20T00:34:11.162Z,99.90
2023-01-20T00:36:40.102Z,99.90
2023-01-20T00:39:08.855Z,99.90
2023-01-20T00:41:37.527Z,99.50
2023-01-20T00:44:06.551Z,99.70
2023-01-20T00:46:35.369Z,99.90
2023-01-20T00:49:04.101Z,99.90
2023-01-20T00:51:32.826Z,99.50
2023-01-20T00:54:01.685Z,99.60
2023-01-20T00:56:30.401Z,99.90
2023-01-20T00:58:59.165Z,99.90
2023-01-20T01:01:28.057Z,99.90
2023-01-20T01:03:56.844Z,99.90
2023-01-20T01:06:25.567Z,99.90
2023-01-20T01:08:54.447Z,99.90
2023-01-20T01:11:23.152Z,99.90
2023-01-20T01:13:51.925Z,99.90
2023-01-20T01:16:20.733Z,99.90
2023-01-20T01:18:49.673Z,99.90
2023-01-20T01:21:19.208Z,99.90
2023-01-20T01:23:48.232Z,99.80
2023-01-20T01:26:17.164Z,99.30
2023-01-20T01:28:48.829Z,99.20
2023-01-20T01:31:20.118Z,99.00
2023-01-20T01:33:49.298Z,98.60
2023-01-20T01:36:19.273Z,98.60
2023-01-20T01:38:58.487Z,98.50
2023-01-20T01:41:28.351Z,98.40
2023-01-20T01:44:08.012Z,98.50
2023-01-20T01:46:37.894Z,98.30
2023-01-20T01:49:13.757Z,98.70
2023-01-20T01:52:04.562Z,97.90
2023-01-20T01:54:38.543Z,97.90
2023-01-20T01:57:11.105Z,97.90
2023-01-20T01:59:40.396Z,97.80
2023-01-20T02:02:09.161Z,97.80
2023-01-20T02:04:39.676Z,97.60
2023-01-20T02:07:16.687Z,97.70
2023-01-20T02:09:45.856Z,97.60
2023-01-20T02:12:19.192Z,97.20
2023-01-20T02:14:53.138Z,97.30
2023-01-20T02:17:42.021Z,97.00
2023-01-20T02:20:38.315Z,96.80
2023-01-20T02:23:35.560Z,96.60
2023-01-20T02:26:43.493Z,96.70
2023-01-20T02:29:51.405Z,96.70
2023-01-20T02:32:22.079Z,96.80
2023-01-20T02:35:02.823Z,96.50
2023-01-20T02:37:41.885Z,96.30
2023-01-20T02:40:37.850Z,96.60
2023-01-20T02:43:20.432Z,96.40
2023-01-20T02:46:04.764Z,96.20
2023-01-20T02:48:40.859Z,96.00
2023-01-20T02:51:18.867Z,96.20
2023-01-20T02:53:54.511Z,96.10
2023-01-20T02:56:26.886Z,96.00
2023-01-20T02:59:02.360Z,96.20
2023-01-20T03:01:38.843Z,95.60
2023-01-20T03:04:11.925Z,95.50
2023-01-20T03:06:42.787Z,95.60
2023-01-20T03:09:17.256Z,95.50
2023-01-20T03:11:52.936Z,95.80
2023-01-20T03:14:21.878Z,95.70
2023-01-20T03:16:51.466Z,95.70
2023-01-20T03:19:21.577Z,95.90
2023-01-20T03:21:50.976Z,95.20
2023-01-20T03:24:19.873Z,95.60
2023-01-20T03:26:48.576Z,95.80
2023-01-20T03:29:19.365Z,95.10
2023-01-20T03:31:54.596Z,95.10
2023-01-20T03:34:26.298Z,95.00
2023-01-20T03:36:56.862Z,95.10
2023-01-20T03:39:27.330Z,94.60
2023-01-20T03:42:16.896Z,95.10
2023-01-20T03:45:09.633Z,94.80
2023-01-20T03:47:48.435Z,95.20
2023-01-20T03:50:34.127Z,95.10
2023-01-20T03:53:18.483Z,94.80
2023-01-20T03:55:58.176Z,94.60
2023-01-20T03:58:32.559Z,94.50
2023-01-20T04:01:18.030Z,94.00
2023-01-20T04:03:51.994Z,94.40
2023-01-20T04:06:22.373Z,94.40
2023-01-20T04:08:57.184Z,94.60
2023-01-20T04:11:28.234Z,94.00
2023-01-20T04:13:57.118Z,93.80
2023-01-20T04:16:28.010Z,93.80
2023-01-20T04:18:56.853Z,94.00
2023-01-20T04:21:31.305Z,93.20
2023-01-20T04:24:23.886Z,93.00
2023-01-20T04:26:52.638Z,93.60
2023-01-20T04:29:21.514Z,94.00
2023-01-20T04:31:50.377Z,93.20
2023-01-20T04:34:19.290Z,92.80
2023-01-20T04:36:48.058Z,93.40
2023-01-20T04:39:16.852Z,93.90
2023-01-20T04:41:45.673Z,92.90
2023-01-20T04:44:14.374Z,93.40
2023-01-20T04:46:43.256Z,93.80
2023-01-20T04:49:12.430Z,93.60
2023-01-20T04:51:41.499Z,91.70
2023-01-20T04:54:10.515Z,91.20
2023-01-20T04:56:39.224Z,91.40
2023-01-20T04:59:08.134Z,91.00
2023-01-20T05:01:37.038Z,91.00
2023-01-20T05:04:05.889Z,91.70
2023-01-20T05:06:36.403Z,91.00
2023-01-20T05:09:05.468Z,91.20
2023-01-20T05:11:34.164Z,92.00
2023-01-20T05:14:03.178Z,91.70
2023-01-20T05:16:33.091Z,91.20
2023-01-20T05:19:02.549Z,90.90
2023-01-20T05:21:31.514Z,90.90
2023-01-20T05:24:00.401Z,91.20
2023-01-20T05:26:29.248Z,91.20
2023-01-20T05:28:58.133Z,91.00
2023-01-20T05:31:27.177Z,91.50
2023-01-20T05:33:56.011Z,91.60
2023-01-20T05:36:24.890Z,91.50
2023-01-20T05:38:53.628Z,92.30
2023-01-20T05:41:23.235Z,90.70
2023-01-20T05:43:55.359Z,90.80
2023-01-20T05:46:24.493Z,91.00
2023-01-20T05:48:53.357Z,90.40
2023-01-20T05:51:22.182Z,90.70
2023-01-20T05:53:50.932Z,91.60
2023-01-20T05:56:19.718Z,90.60
2023-01-20T05:58:48.509Z,90.20
2023-01-20T06:01:17.446Z,89.80
2023-01-20T06:03:46.360Z,88.90
2023-01-20T06:06:18.190Z,89.90
2023-01-20T06:16:29.350Z,89.30
2023-01-20T06:18:58.792Z,90.10
2023-01-20T06:21:27.595Z,88.50
2023-01-20T06:23:56.423Z,90.00
2023-01-20T06:26:25.181Z,89.40
2023-01-20T06:28:53.957Z,90.30
2023-01-20T06:31:22.849Z,89.90
2023-01-20T06:33:51.644Z,88.70
2023-01-20T06:36:20.417Z,87.90
2023-01-20T06:38:51.649Z,88.90
2023-01-20T06:41:21.809Z,89.20
2023-01-20T06:43:52.246Z,89.20
2023-01-20T06:46:21.178Z,88.70
2023-01-20T06:48:50.179Z,90.10
2023-01-20T06:51:21.422Z,89.40
2023-01-20T06:53:50.279Z,87.50
2023-01-20T06:56:19.106Z,87.70
2023-01-20T06:58:47.919Z,88.00
2023-01-20T07:01:23.133Z,87.80
2023-01-20T07:03:52.287Z,85.70
2023-01-20T07:06:39.549Z,87.00
2023-01-20T07:09:10.593Z,85.70
2023-01-20T07:11:40.722Z,86.70
2023-01-20T07:14:09.842Z,87.00
2023-01-20T07:16:39.014Z,86.40
2023-01-20T07:19:07.946Z,87.10
2023-01-20T07:21:36.670Z,85.10
2023-01-20T07:24:05.743Z,85.00
2023-01-20T07:26:34.622Z,83.80
2023-01-20T07:29:03.493Z,87.00
2023-01-20T07:31:32.659Z,83.70
2023-01-20T07:34:01.861Z,85.50
2023-01-20T07:36:30.652Z,86.30
2023-01-20T07:38:59.410Z,83.20
2023-01-20T07:41:28.326Z,83.40
2023-01-20T07:43:57.560Z,83.80
2023-01-20T07:46:26.559Z,85.00
2023-01-20T07:48:56.943Z,85.30
2023-01-20T07:51:25.833Z,86.20
2023-01-20T07:53:54.798Z,85.80
2023-01-20T07:56:27.811Z,84.60
2023-01-20T07:58:56.558Z,85.00
2023-01-20T08:01:29.846Z,84.40
2023-01-20T08:04:01.573Z,84.10
2023-01-20T08:06:32.149Z,84.20
2023-01-20T08:09:03.497Z,87.90
2023-01-20T08:11:34.441Z,85.50
2023-01-20T08:14:03.370Z,84.50
2023-01-20T08:16:32.471Z,84.00
2023-01-20T08:19:01.398Z,85.90
2023-01-20T08:21:32.428Z,86.00
2023-01-20T08:24:03.843Z,84.60
2023-01-20T08:26:34.002Z,87.50
2023-01-20T08:29:07.346Z,86.60
2023-01-20T08:31:37.068Z,85.30
2023-01-20T08:34:06.541Z,87.00
2023-01-20T08:36:37.979Z,83.60
2023-01-20T08:39:09.203Z,82.90
2023-01-20T08:41:40.538Z,83.40
2023-01-20T08:44:10.646Z,83.20
2023-01-20T08:46:41.848Z,85.30
2023-01-20T08:49:14.083Z,85.60
2023-01-20T08:51:44.763Z,83.50
2023-01-20T08:54:15.701Z,83.90
2023-01-20T08:56:45.102Z,85.90
2023-01-20T08:59:13.964Z,83.50
2023-01-20T09:01:44.320Z,84.70
2023-01-20T09:04:13.726Z,84.50
2023-01-20T09:06:48.300Z,82.60
2023-01-20T09:09:19.711Z,84.30
2023-01-20T09:11:53.891Z,81.50
2023-01-20T09:14:25.173Z,81.40
2023-01-20T09:16:54.144Z,82.50
2023-01-20T09:19:22.992Z,82.10
2023-01-20T09:21:51.818Z,83.10
2023-01-20T09:24:20.689Z,81.90
2023-01-20T09:26:50.713Z,82.30
2023-01-20T09:29:21.954Z,81.00
2023-01-20T09:31:53.479Z,83.70
2023-01-20T09:34:22.929Z,83.90
2023-01-20T09:36:57.856Z,81.60
2023-01-20T09:39:46.524Z,84.00
2023-01-20T09:42:53.232Z,84.90
2023-01-20T09:45:46.350Z,84.30
2023-01-20T09:48:39.249Z,82.10
2023-01-20T09:51:36.960Z,82.60
2023-01-20T09:54:15.843Z,83.30
2023-01-20T09:56:49.329Z,82.70
2023-01-20T09:59:40.319Z,83.30
2023-01-20T10:02:18.948Z,84.00
2023-01-20T10:04:54.239Z,84.70
2023-01-20T10:07:25.258Z,82.90
2023-01-20T10:10:01.788Z,83.20
2023-01-20T10:12:37.078Z,82.70
2023-01-20T10:15:30.326Z,82.40
2023-01-20T10:18:10.356Z,83.30
2023-01-20T10:20:56.905Z,84.00
2023-01-20T10:23:50.195Z,83.90
2023-01-20T10:26:26.293Z,85.10
2023-01-20T10:29:02.402Z,84.60
2023-01-20T10:31:36.177Z,84.30
2023-01-20T10:34:13.714Z,84.50
2023-01-20T10:36:47.357Z,84.50
2023-01-20T10:39:36.180Z,84.30
2023-01-20T10:42:11.470Z,83.90
2023-01-20T10:44:40.864Z,84.10
2023-01-20T10:47:40.492Z,84.40
2023-01-20T10:50:18.151Z,84.30
2023-01-20T10:53:07.007Z,85.00
2023-01-20T10:55:59.778Z,85.30
2023-01-20T10:58:33.364Z,86.80
2023-01-20T11:01:05.738Z,87.80
2023-01-20T11:03:40.942Z,88.70
2023-01-20T11:06:27.833Z,89.10
2023-01-20T11:08:57.478Z,89.50
2023-01-20T11:11:30.515Z,89.90
2023-01-20T11:14:00.650Z,90.10
2023-01-20T11:16:30.081Z,90.10
2023-01-20T11:19:04.024Z,90.30
2023-01-20T11:21:37.623Z,90.50
2023-01-20T11:24:45.743Z,90.60
2023-01-20T11:27:21.570Z,90.80
2023-01-20T11:29:57.261Z,91.00
2023-01-20T11:32:34.462Z,91.10
2023-01-20T11:35:20.112Z,91.20
2023-01-20T11:37:48.917Z,91.30
2023-01-20T11:40:25.086Z,91.40
2023-01-20T11:42:55.881Z,91.60
2023-01-20T11:45:37.571Z,91.70
2023-01-20T11:48:18.052Z,91.70
2023-01-20T11:50:51.319Z,91.90
2023-01-20T11:53:25.823Z,91.80
2023-01-20T11:56:00.059Z,91.80
2023-01-20T11:58:52.420Z,91.80
2023-01-20T12:01:26.293Z,91.90
2023-01-20T12:04:19.080Z,91.90
2023-01-20T12:07:11.416Z,92.00
2023-01-20T12:09:45.235Z,91.90
2023-01-20T12:12:30.477Z,92.00
2023-01-20T12:15:11.330Z,92.10
2023-01-20T12:17:48.646Z,92.10
2023-01-20T12:20:54.519Z,92.20
2023-01-20T12:23:46.741Z,92.20
2023-01-20T12:26:18.303Z,92.20
2023-01-20T12:29:10.252Z,92.30
2023-01-20T12:31:38.923Z,92.30
2023-01-20T12:34:14.986Z,92.30
2023-01-20T12:37:22.937Z,92.50
2023-01-20T12:40:09.208Z,92.60
2023-01-20T12:42:57.900Z,92.60
2023-01-20T12:45:36.195Z,92.60
2023-01-20T12:48:24.965Z,92.70
2023-01-20T12:51:10.853Z,92.70
2023-01-20T12:54:03.147Z,92.70
2023-01-20T12:56:35.173Z,92.70
2023-01-20T12:59:24.186Z,92.70
2023-01-20T13:02:38.465Z,92.80
2023-01-20T13:05:27.160Z,92.80
2023-01-20T13:08:37.412Z,92.80
2023-01-20T13:11:14.973Z,92.90
2023-01-20T13:14:00.240Z,92.80
2023-01-20T13:16:37.632Z,92.90
2023-01-20T13:19:17.681Z,92.80
2023-01-20T13:21:54.034Z,93.00
2023-01-20T13:24:32.288Z,92.90
2023-01-20T13:27:02.968Z,93.10
2023-01-20T13:29:44.059Z,93.30
2023-01-20T13:32:33.969Z,93.30
2023-01-20T13:35:23.387Z,93.50
2023-01-20T13:37:58.987Z,93.20
2023-01-20T13:40:50.541Z,93.20
2023-01-20T13:43:36.809Z,93.20
2023-01-20T13:46:07.007Z,93.20
2023-01-20T13:48:38.820Z,93.20
2023-01-20T13:51:28.765Z,93.40
2023-01-20T13:54:36.537Z,93.50
2023-01-20T13:57:28.861Z,93.40
2023-01-20T13:59:58.098Z,93.30
2023-01-20T14:02:29.305Z,93.10
2023-01-20T14:04:59.803Z,93.10
2023-01-20T14:07:31.674Z,93.30
2023-01-20T14:10:02.530Z,93.20
2023-01-20T14:12:31.327Z,93.20
2023-01-20T14:15:00.863Z,93.50
2023-01-20T14:17:29.764Z,93.70
2023-01-20T14:19:58.736Z,93.50
2023-01-20T14:22:33.203Z,93.40
2023-01-20T14:25:02.763Z,93.40
2023-01-20T14:27:36.351Z,93.30
2023-01-20T14:30:25.867Z,93.40
2023-01-20T14:32:55.383Z,93.30
2023-01-20T14:35:28.531Z,93.30
2023-01-20T14:37:57.510Z,93.40
2023-01-20T14:40:30.294Z,93.30
2023-01-20T14:43:04.599Z,93.40
2023-01-20T14:45:35.498Z,93.60
2023-01-20T14:48:06.122Z,93.60
2023-01-20T14:50:35.263Z,93.70
2023-01-20T14:53:05.079Z,93.70
2023-01-20T14:55:37.836Z,93.80
2023-01-20T14:58:18.758Z,93.70
2023-01-20T15:00:51.105Z,93.70
2023-01-20T15:03:32.258Z,93.70
2023-01-20T15:06:20.989Z,93.70
2023-01-20T15:09:05.736Z,93.70
2023-01-20T15:11:35.567Z,94.10
2023-01-20T15:14:06.287Z,93.80
2023-01-20T15:16:42.788Z,93.90
2023-01-20T15:19:30.015Z,94.00
2023-01-20T15:22:21.546Z,94.10
2023-01-20T15:24:51.885Z,94.10
2023-01-20T15:27:31.570Z,94.20
2023-01-20T15:30:20.616Z,94.20
2023-01-20T15:32:50.460Z,94.20
2023-01-20T15:35:22.193Z,94.20
2023-01-20T15:37:51.376Z,94.30
2023-01-20T15:40:24.094Z,94.30
2023-01-20T15:42:54.495Z,94.20
2023-01-20T15:45:23.427Z,94.30
2023-01-20T15:47:52.316Z,94.30
2023-01-20T15:50:25.253Z,94.40
2023-01-20T15:52:54.077Z,94.50
2023-01-20T15:55:23.131Z,94.40
2023-01-20T15:57:53.755Z,94.60
2023-01-20T16:00:24.706Z,94.60
2023-01-20T16:02:54.030Z,94.70
2023-01-20T16:05:23.398Z,94.80
2023-01-20T16:07:52.526Z,94.80
2023-01-20T16:10:21.645Z,95.10
2023-01-20T16:12:50.756Z,95.20
2023-01-20T16:15:20.081Z,95.30
2023-01-20T16:17:49.012Z,95.10
2023-01-20T16:20:22.537Z,95.00
2023-01-20T16:22:51.872Z,95.00
2023-01-20T16:25:22.198Z,95.30
2023-01-20T16:27:51.313Z,95.20
2023-01-20T16:30:23.055Z,95.20
2023-01-20T16:32:52.472Z,95.50
2023-01-20T16:35:24.588Z,95.30
2023-01-20T16:37:54.000Z,95.30
2023-01-20T16:40:23.642Z,95.30
2023-01-20T16:42:55.729Z,95.50
2023-01-20T16:45:30.578Z,95.50
2023-01-20T16:47:59.638Z,95.60
2023-01-20T16:50:29.457Z,95.50
2023-01-20T16:52:58.440Z,95.50
2023-01-20T16:55:27.380Z,95.40
2023-01-20T16:57:56.334Z,95.40
2023-01-20T17:04:00.298Z,95.40
2023-01-20T17:06:32.133Z,95.50
2023-01-20T17:09:03.070Z,95.70
2023-01-20T17:11:41.431Z,95.70
2023-01-20T17:14:12.482Z,95.70
2023-01-20T17:16:41.911Z,95.70
2023-01-20T17:19:11.310Z,95.60
2023-01-20T17:21:40.843Z,95.70
2023-01-20T17:24:09.884Z,95.90
2023-01-20T17:26:39.017Z,96.00
2023-01-20T17:29:08.124Z,96.20
2023-01-20T17:31:37.870Z,96.00
2023-01-20T17:34:07.663Z,96.20
2023-01-20T17:36:36.509Z,96.10
2023-01-20T17:39:06.897Z,96.10
2023-01-20T17:41:36.254Z,96.10
2023-01-20T17:44:06.801Z,96.00
2023-01-20T17:46:35.622Z,96.00
2023-01-20T17:49:08.920Z,96.10
2023-01-20T17:51:37.811Z,96.10
2023-01-20T17:54:06.599Z,96.10
2023-01-20T17:56:35.563Z,96.10
2023-01-20T17:59:04.361Z,96.20
2023-01-20T18:01:34.266Z,96.20
2023-01-20T18:04:05.819Z,96.20
2023-01-20T18:06:36.336Z,96.40
2023-01-20T18:09:08.374Z,96.30
2023-01-20T18:11:38.518Z,96.30
2023-01-20T18:14:08.651Z,96.30
2023-01-20T18:16:42.504Z,96.40
2023-01-20T18:19:14.925Z,96.40
2023-01-20T18:21:45.336Z,96.20
2023-01-20T18:24:14.542Z,96.20
2023-01-20T18:26:44.209Z,96.20
2023-01-20T18:29:17.442Z,96.20
2023-01-20T18:31:47.445Z,96.20
2023-01-20T18:34:16.832Z,96.20
2023-01-20T18:36:47.319Z,96.30
2023-01-20T18:39:20.108Z,96.40
2023-01-20T18:41:50.058Z,96.50
2023-01-20T18:44:19.952Z,96.40
2023-01-20T18:46:49.117Z,96.30
2023-01-20T18:49:18.786Z,96.50
2023-01-20T18:51:47.881Z,96.60
2023-01-20T18:54:18.780Z,96.60
2023-01-20T18:56:48.326Z,96.60
2023-01-20T18:59:17.190Z,96.60
2023-01-20T19:01:45.964Z,96.70
2023-01-20T19:04:15.193Z,96.70
2023-01-20T19:06:45.841Z,96.70
2023-01-20T19:09:17.153Z,96.80
2023-01-20T19:11:45.958Z,96.90
2023-01-20T19:14:16.340Z,96.90
2023-01-20T19:16:49.940Z,96.80
2023-01-20T19:19:19.974Z,96.90
2023-01-20T19:21:53.121Z,97.00
2023-01-20T19:24:23.158Z,97.10
2023-01-20T19:26:51.931Z,97.20
2023-01-20T19:29:21.729Z,97.20
2023-01-20T19:31:50.547Z,97.20
2023-01-20T19:34:19.354Z,97.20
2023-01-20T19:36:48.243Z,97.30
2023-01-20T19:39:17.216Z,97.40
2023-01-20T19:41:46.003Z,97.40
2023-01-20T19:44:14.995Z,97.40
2023-01-20T19:46:43.780Z,97.50
2023-01-20T19:49:13.336Z,97.40
2023-01-20T19:51:42.296Z,97.30
2023-01-20T19:54:14.551Z,97.40
2023-01-20T19:56:43.416Z,97.30
2023-01-20T19:59:14.833Z,97.40
2023-01-20T20:01:43.877Z,97.60
2023-01-20T20:04:14.638Z,97.70
2023-01-20T20:06:48.057Z,97.70
2023-01-20T20:09:21.184Z,97.70
2023-01-20T20:11:50.627Z,97.80
2023-01-20T20:14:21.459Z,97.90
2023-01-20T20:16:51.740Z,97.90
2023-01-20T20:19:21.181Z,98.00
2023-01-20T20:21:50.046Z,98.10
2023-01-20T20:24:20.038Z,98.10
2023-01-20T20:26:49.973Z,98.10
2023-01-20T20:29:21.434Z,98.20
2023-01-20T20:31:52.002Z,98.20
2023-01-20T20:34:21.665Z,98.10
2023-01-20T20:36:50.550Z,98.10
2023-01-20T20:39:20.824Z,98.10
2023-01-20T20:41:49.637Z,98.00
2023-01-20T20:44:18.546Z,98.00
2023-01-20T20:46:47.403Z,98.00
2023-01-20T20:49:17.304Z,98.00
2023-01-20T20:51:46.396Z,97.90
2023-01-20T20:54:17.903Z,97.90
2023-01-20T20:56:47.985Z,97.70
2023-01-20T20:59:30.128Z,97.70
2023-01-20T21:01:59.104Z,98.10
2023-01-20T21:04:28.260Z,97.60
2023-01-20T21:06:57.482Z,97.70
2023-01-20T21:09:27.320Z,97.70
2023-01-20T21:11:56.143Z,97.70
2023-01-20T21:14:26.431Z,97.70
2023-01-20T21:16:55.357Z,97.80
2023-01-20T21:19:24.184Z,97.90
2023-01-20T21:21:52.940Z,98.00
2023-01-20T21:24:26.882Z,98.10
2023-01-20T21:26:56.204Z,97.90
2023-01-20T21:29:27.227Z,98.10
2023-01-20T21:32:16.753Z,98.10
2023-01-20T21:34:53.563Z,98.00
2023-01-20T21:37:22.403Z,97.90
2023-01-20T21:39:59.428Z,98.00
2023-01-20T21:42:28.669Z,97.90
2023-01-20T21:44:58.173Z,97.90
2023-01-20T21:47:27.828Z,98.00
2023-01-20T21:50:16.684Z,98.00
2023-01-20T21:52:46.377Z,98.10
2023-01-20T21:55:20.286Z,98.20
2023-01-20T21:57:51.314Z,98.30
2023-01-20T22:00:20.703Z,98.30
2023-01-20T22:02:51.779Z,98.20
2023-01-20T22:05:21.165Z,98.30
2023-01-20T22:07:49.994Z,98.20
2023-01-20T22:10:19.001Z,98.00
2023-01-20T22:13:04.399Z,97.90
2023-01-20T22:15:35.044Z,97.80
2023-01-20T22:18:03.748Z,97.80
2023-01-20T22:20:32.521Z,97.80
2023-01-20T22:23:01.234Z,97.70
2023-01-20T22:25:30.036Z,98.10
2023-01-20T22:28:00.111Z,97.80
2023-01-20T22:30:29.173Z,98.10
2023-01-20T22:32:58.094Z,97.90
2023-01-20T22:35:31.693Z,97.80
2023-01-20T22:38:00.777Z,97.90
2023-01-20T22:40:29.558Z,97.90
2023-01-20T22:42:58.340Z,97.90
2023-01-20T22:45:27.525Z,98.10
2023-01-20T22:47:57.756Z,97.90
2023-01-20T22:50:26.530Z,97.80
2023-01-20T22:52:55.446Z,97.70
2023-01-20T22:55:24.507Z,98.00
2023-01-20T22:57:53.173Z,97.70
2023-01-20T23:00:24.166Z,97.60
2023-01-20T23:02:53.088Z,97.70
2023-01-20T23:05:25.767Z,97.60
2023-01-20T23:07:54.589Z,97.80
2023-01-20T23:10:42.946Z,97.80
2023-01-20T23:13:11.709Z,97.80
2023-01-20T23:15:40.348Z,97.60
2023-01-20T23:18:09.384Z,97.80
2023-01-20T23:20:38.311Z,97.70
2023-01-20T23:23:07.811Z,97.70
2023-01-20T23:25:36.684Z,97.80
2023-01-20T23:28:05.574Z,97.70
2023-01-20T23:30:34.343Z,97.80
2023-01-20T23:33:03.166Z,97.70
2023-01-20T23:35:32.260Z,98.00
2023-01-20T23:38:01.052Z,97.90
2023-01-20T23:40:31.279Z,97.80
2023-01-20T23:43:00.051Z,97.80
2023-01-20T23:45:29.772Z,97.80
2023-01-20T23:47:58.577Z,97.90
2023-01-20T23:50:27.427Z,98.10
2023-01-20T23:52:56.169Z,98.00
2023-01-20T23:55:24.960Z,98.00
2023-01-20T23:57:53.740Z,98.10
